createdAt,value
2022-10-25T17:27:39.805Z,101215.47
2022-10-25T17:30:09.562Z,101208.72
2022-10-25T17:32:37.371Z,101215.53
2022-10-25T17:35:06.307Z,101213.84
2022-10-25T17:37:34.003Z,101224.09
2022-10-25T17:40:01.529Z,101225.69
2022-10-25T17:42:29.177Z,101217.03
2022-10-25T17:44:57.967Z,101229.19
2022-10-25T17:47:25.424Z,101228.38
2022-10-25T17:49:54.289Z,101236.13
2022-10-25T17:52:21.655Z,101225.75
2022-10-25T17:54:49.120Z,101233.53
2022-10-25T17:57:16.555Z,101236.25
2022-10-25T17:59:43.969Z,101237.91
2022-10-25T18:02:12.820Z,101238.75
2022-10-25T18:04:53.739Z,101237.03
2022-10-25T18:07:29.979Z,101234.44
2022-10-25T18:10:00.072Z,101241.44
2022-10-25T18:12:27.725Z,101240.53
2022-10-25T18:14:55.706Z,101245.69
2022-10-25T18:17:24.670Z,101245.72
2022-10-25T18:19:52.079Z,101241.38
2022-10-25T18:22:21.262Z,101244.00
2022-10-25T18:24:48.895Z,101248.31
2022-10-25T18:27:16.289Z,101258.75
2022-10-25T18:29:43.790Z,101257.91
2022-10-25T18:32:11.167Z,101258.81
2022-10-25T18:34:39.861Z,101256.22
2022-10-25T18:37:07.265Z,101253.66
2022-10-25T18:39:34.626Z,101259.69
2022-10-25T18:42:02.006Z,101254.53
2022-10-25T18:44:29.396Z,101263.19
2022-10-25T18:46:56.811Z,101259.69
2022-10-25T18:49:24.221Z,101260.56
2022-10-25T18:51:53.239Z,101261.44
2022-10-25T18:54:20.640Z,101264.03
2022-10-25T18:56:48.040Z,101266.63
2022-10-25T18:59:15.432Z,101257.13
2022-10-25T19:01:42.920Z,101263.13
2022-10-25T19:04:10.385Z,101257.97
2022-10-25T19:06:37.852Z,101257.97
2022-10-25T19:09:06.610Z,101261.44
2022-10-25T19:11:35.134Z,101258.00
2022-10-25T19:14:03.934Z,101257.09
2022-10-25T19:16:31.348Z,101265.72
2022-10-25T19:19:02.307Z,101265.75
2022-10-25T19:21:29.726Z,101257.09
2022-10-25T19:23:57.116Z,101257.13
2022-10-25T19:26:25.827Z,101255.38
2022-10-25T19:28:57.653Z,101254.53
2022-10-25T19:31:25.273Z,101257.16
2022-10-25T19:33:53.661Z,101256.28
2022-10-25T19:36:21.376Z,101259.72
2022-10-25T19:38:49.252Z,101260.59
2022-10-25T19:41:18.912Z,101253.69
2022-10-25T19:43:48.234Z,101251.94
2022-10-25T19:46:16.617Z,101251.97
2022-10-25T19:48:44.029Z,101258.84
2022-10-25T19:51:12.789Z,101265.81
2022-10-25T19:53:40.834Z,101265.84
2022-10-25T19:56:10.605Z,101263.22
2022-10-25T19:58:38.258Z,101266.72
2022-10-25T20:01:09.096Z,101268.44
2022-10-25T20:03:37.590Z,101267.53
2022-10-25T20:06:08.253Z,101280.50
2022-10-25T20:08:37.191Z,101278.78
2022-10-25T20:11:05.617Z,101290.00
2022-10-25T20:13:33.237Z,101280.50
2022-10-25T20:16:00.708Z,101280.50
2022-10-25T20:18:32.262Z,101283.13
2022-10-25T20:21:01.793Z,101271.00
2022-10-25T20:23:29.738Z,101281.38
2022-10-25T20:25:57.139Z,101283.97
2022-10-25T20:28:24.702Z,101280.53
2022-10-25T20:30:52.623Z,101284.81
2022-10-25T20:33:20.412Z,101293.44
2022-10-25T20:35:49.127Z,101306.44
2022-10-25T20:38:16.945Z,101299.50
2022-10-25T20:40:45.236Z,101302.13
2022-10-25T20:43:12.670Z,101308.13
2022-10-25T20:45:41.383Z,101310.72
2022-10-25T20:48:11.141Z,101312.47
2022-10-25T20:50:38.532Z,101315.88
2022-10-25T20:53:10.895Z,101308.97
2022-10-25T20:55:38.902Z,101316.81
2022-10-25T20:58:06.398Z,101318.50
2022-10-25T21:00:34.057Z,101316.81
2022-10-25T21:03:01.896Z,101309.03
2022-10-25T21:05:29.353Z,101315.06
2022-10-25T21:07:56.749Z,101309.84
2022-10-25T21:10:26.855Z,101313.28
2022-10-25T21:12:54.267Z,101312.41
2022-10-25T21:15:21.656Z,101317.63
2022-10-25T21:17:50.265Z,101315.00
2022-10-25T21:20:18.072Z,101316.66
2022-10-25T21:22:47.533Z,101315.00
2022-10-25T21:25:15.437Z,101321.06
2022-10-25T21:27:44.226Z,101324.50
2022-10-25T21:30:12.137Z,101321.91
2022-10-25T21:32:39.796Z,101324.47
2022-10-25T21:35:07.688Z,101322.75
2022-10-25T21:37:37.211Z,101331.34
2022-10-25T21:40:04.967Z,101327.00
2022-10-25T21:42:34.904Z,101319.19
2022-10-25T21:45:03.812Z,101327.88
2022-10-25T21:47:31.263Z,101323.53
2022-10-25T21:49:58.659Z,101326.97
2022-10-25T21:52:26.211Z,101326.09
2022-10-25T21:54:53.632Z,101326.94
2022-10-25T21:57:21.032Z,101332.97
2022-10-25T21:59:48.421Z,101336.44
2022-10-25T22:02:19.669Z,101339.94
2022-10-25T22:04:47.203Z,101333.81
2022-10-25T22:07:14.624Z,101339.91
2022-10-25T22:09:42.091Z,101339.00
2022-10-25T22:12:09.508Z,101337.31
2022-10-25T22:14:37.072Z,101342.50
2022-10-25T22:17:04.449Z,101342.47
2022-10-25T22:19:33.175Z,101339.84
2022-10-25T22:22:00.577Z,101334.66
2022-10-25T22:24:27.970Z,101335.44
2022-10-25T22:26:55.416Z,101329.25
2022-10-25T22:29:22.808Z,101332.97
2022-10-25T22:31:50.197Z,101338.97
2022-10-25T22:34:17.588Z,101336.38
2022-10-25T22:36:46.351Z,101334.66
2022-10-25T22:39:13.723Z,101338.00
2022-10-25T22:41:41.222Z,101334.47
2022-10-25T22:44:08.783Z,101338.00
2022-10-25T22:46:36.937Z,101336.22
2022-10-25T22:49:06.803Z,101335.34
2022-10-25T22:51:35.015Z,101343.81
2022-10-25T22:54:04.288Z,101339.78
2022-10-25T22:56:32.283Z,101345.91
2022-10-25T22:59:01.355Z,101342.34
2022-10-25T23:01:30.410Z,101337.06
2022-10-25T23:03:59.895Z,101346.56
2022-10-25T23:06:29.179Z,101349.16
2022-10-25T23:08:58.102Z,101339.66
2022-10-25T23:11:28.957Z,101343.03
2022-10-25T23:13:57.856Z,101346.47
2022-10-25T23:16:27.610Z,101343.03
2022-10-25T23:18:55.382Z,101348.28
2022-10-25T23:21:24.148Z,101350.88
2022-10-25T23:23:52.740Z,101341.34
2022-10-25T23:26:22.969Z,101338.72
2022-10-25T23:28:52.094Z,101345.56
2022-10-25T23:31:19.684Z,101339.56
2022-10-25T23:33:51.601Z,101337.88
2022-10-25T23:36:21.187Z,101346.50
2022-10-25T23:38:53.120Z,101343.06
2022-10-25T23:41:22.577Z,101342.03
2022-10-25T23:43:50.110Z,101345.47
2022-10-25T23:46:19.136Z,101344.66
2022-10-25T23:48:46.951Z,101342.06
2022-10-25T23:51:17.387Z,101342.97
2022-10-25T23:53:45.535Z,101342.91
2022-10-25T23:56:14.532Z,101347.19
2022-10-25T23:58:42.436Z,101344.69
